Airfield :







YOU CAN JOIN US ON...

 
LOGIN :

Register | Disclaimer

   EN    FR    IT 

 









Legend :    VFR   Marginal VFR   IFR   Intensive IFR   Very Intensive IFR
Visi :
Ceiling :
>= 8 km
>= 3000ft
5 to 8 km
1000 to 3000 ft
1500m to 5 km
500 to 1000 ft
800 to 1500m
200 to 500 ft
< 800m
< 200 ft
Symbols :   Thunderstorms  Fog  Heavy snow  Heavy precipitations  Wind > 20 kt







- Airport Elevation : 1442 ft
- IATA code : ZUM


CZUM - Churchill Falls

CURRENT METAR :
  • 171300Z AUTO 28014G22KT 9SM -SN CLR M21/M25 A2941 RMK SLP006

EXPIRED METARs :
  • 171200Z AUTO 28013G23KT 9SM CLR M21/M25 A2941 RMK SLP003
  • 171100Z AUTO 28012G20KT 9SM CLR M20/M24 A2940 RMK SLP996
  • 171046Z AUTO 28013G23KT 9SM -SN CLR M20/M23 A2939 RMK SLP993

TAF TAF CZUM
Valid from the 17 at 08:00 until the 17 at 20:00 UTC


170742Z 1708/1720 28012G22KT P6SM -SN BKN025
TEMPO 1708/1718 2SM -SN BLSN OVC020
BECMG 1708/1710 29015G25KT
FM171800 28018G28KT 2SM -SN OVC020 RMK FCST BASED ON AUTO OBS. NXT FCST BY 171400Z
CZQX FIR / North America



MET'MAP, your aeronautical weather chart ! - Copyright ORBIFLY December 2007 - Disclaimer

ORBIFLY MET'MAP TEAM :

Programming & Development : Alexandra Zaïnal
Concept & Development : Baudouin d'Aumeries
Co-Development & Prog : Marc-Olivier Méhu
Technical & hardware support : Manuel Goepfert

Contact : metmap@orbifly.com




SOURCES & CREDITS :

   NOAA